Time;durP1;ratioP1;P1;durP2;ratioP2;P2;SDS_P1;SDS_P2;PMS_P1;PMS_P2;Temp;Humidity;BMP_temperature;BMP_pressure;BME280_temperature;BME280_humidity;BME280_pressure;Samples;Min_cycle;Max_cycle;Signal;HPM_P1;HPM_P2
2023/04/22 00:01:20;;;;;;;;;;;;;;;-140.72;100.00;52829.19;5029329;28;20430;-69
2023/04/22 00:03:46;;;;;;;;;;;;;;;-140.72;100.00;52861.66;5012154;28;19921;-69
2023/04/22 00:06:12;;;;;;;;;;;;;;;-140.72;100.00;52861.66;5025623;28;19922;-69
2023/04/22 00:08:43;;;;;;;;;;;;;;;-140.72;100.00;52865.69;5027653;28;20291;-69
2023/04/22 00:11:08;;;;;;;;;;;;;;;-140.72;100.00;52873.81;5021835;28;19963;-69
2023/04/22 00:13:35;;;;;;;;;;;;;;;-140.72;100.00;52890.06;5018052;28;20260;-69
2023/04/22 00:16:01;;;;;;;;;;;;;;;-140.72;100.00;52869.75;5026335;27;19929;-69
2023/04/22 00:18:26;;;;;;;;;;;;;;;-140.72;100.00;52863.66;5026573;28;19932;-69
2023/04/22 00:20:52;;;;;;;;;;;;;;;-140.72;100.00;52890.06;5026362;28;20347;-68
2023/04/22 00:23:17;;;;;;;;;;;;;;;-140.72;100.00;52861.66;5027178;28;20025;-69
2023/04/22 00:25:43;;;;;;;;;;;;;;;-140.72;100.00;52863.66;5038363;28;19960;-71
2023/04/22 00:28:13;;;;;;;;;;;;;;;-140.72;100.00;52894.13;5019031;28;19970;-69
2023/04/22 00:30:38;;;;;;;;;;;;;;;-140.72;100.00;52869.75;5028441;28;20000;-69
2023/04/22 00:33:03;;;;;;;;;;;;;;;-140.72;100.00;52877.88;5025950;28;20353;-69
2023/04/22 00:35:29;;;;;;;;;;;;;;;-140.72;100.00;52857.59;5026021;28;19917;-69
2023/04/22 00:37:54;;;;;;;;;;;;;;;-140.72;100.00;52849.47;5023754;28;19996;-69
2023/04/22 00:40:20;;;;;;;;;;;;;;;-140.72;100.00;52906.28;5032927;28;19947;-69
2023/04/22 00:42:48;;;;;;;;;;;;;;;-140.72;100.00;52879.91;5034252;28;20010;-69
2023/04/22 00:45:14;;;;;;;;;;;;;;;-140.72;100.00;52906.28;5046239;28;20348;-70
2023/04/22 00:47:40;;;;;;;;;;;;;;;-140.72;100.00;52881.94;5030666;28;19953;-68
2023/04/22 00:50:05;;;;;;;;;;;;;;;-140.72;100.00;52881.94;5033625;28;19965;-69
2023/04/22 00:52:31;;;;;;;;;;;;;;;-140.72;100.00;52869.75;5036189;28;19993;-68
2023/04/22 00:54:56;;;;;;;;;;;;;;;-140.72;100.00;52871.78;5036511;28;19940;-68
2023/04/22 00:57:21;;;;;;;;;;;;;;;-140.72;100.00;52910.34;5019743;28;20520;-68
2023/04/22 00:59:47;;;;;;;;;;;;;;;-140.72;100.00;52886.00;5023482;28;19925;-69
2023/04/22 01:02:13;;;;;;;;;;;;;;;-140.72;100.00;52879.91;5024326;28;19952;-68
2023/04/22 01:04:38;;;;;;;;;;;;;;;-140.72;100.00;52863.66;5023042;28;19925;-68
2023/04/22 01:07:03;;;;;;;;;;;;;;;-140.72;100.00;52869.75;5022816;28;20024;-69
2023/04/22 01:09:29;;;;;;;;;;;;;;;-140.72;100.00;52857.59;5026615;28;19923;-69
2023/04/22 01:11:55;;;;;;;;;;;;;;;-140.72;100.00;52888.03;5022142;28;20015;-69
2023/04/22 01:14:20;;;;;;;;;;;;;;;-140.72;100.00;52879.91;5032647;28;19922;-68
2023/04/22 01:16:45;;;;;;;;;;;;;;;-140.72;100.00;52906.28;5029669;28;19918;-69
2023/04/22 01:19:10;;;;;;;;;;;;;;;-140.72;100.00;52879.91;5030071;28;19921;-69
2023/04/22 01:21:37;;;;;;;;;;;;;;;-140.72;100.00;52894.13;5026053;28;20295;-69
2023/04/22 01:24:03;;;;;;;;;;;;;;;-140.72;100.00;52875.84;5025283;28;20324;-69
2023/04/22 01:26:28;;;;;;;;;;;;;;;-140.72;100.00;52940.78;5022103;28;19921;-69
2023/04/22 01:28:54;;;;;;;;;;;;;;;-140.72;100.00;52875.84;5031584;28;19917;-69
2023/04/22 01:31:19;;;;;;;;;;;;;;;-140.72;100.00;52904.25;5020531;28;19955;-69
2023/04/22 01:33:45;;;;;;;;;;;;;;;-140.72;100.00;52869.75;5041214;28;20024;-69
2023/04/22 01:36:11;;;;;;;;;;;;;;;-140.72;100.00;52851.50;5024426;28;19928;-69
2023/04/22 01:38:36;;;;;;;;;;;;;;;-140.72;100.00;52881.94;5031238;28;19927;-69
2023/04/22 01:41:01;;;;;;;;;;;;;;;-140.72;100.00;52883.97;5022917;28;20008;-69
2023/04/22 01:43:27;;;;;;;;;;;;;;;-140.72;100.00;52871.78;5031713;28;19921;-69
2023/04/22 01:45:53;;;;;;;;;;;;;;;-140.72;100.00;52877.88;5027404;28;19985;-69
2023/04/22 01:48:18;;;;;;;;;;;;;;;-140.72;100.00;52877.88;5031700;28;19920;-69
2023/04/22 01:50:43;;;;;;;;;;;;;;;-140.72;100.00;52904.25;5027860;28;19927;-69
2023/04/22 01:53:10;;;;;;;;;;;;;;;-140.72;100.00;52890.06;5028116;27;20000;-69
2023/04/22 01:55:37;;;;;;;;;;;;;;;-140.72;100.00;52908.31;5030590;28;19921;-68
2023/04/22 01:58:02;;;;;;;;;;;;;;;-140.72;100.00;52853.53;5031906;28;19930;-69
2023/04/22 02:00:27;;;;;;;;;;;;;;;-140.72;100.00;52900.19;5048031;28;19966;-69
2023/04/22 02:02:53;;;;;;;;;;;;;;;-140.72;100.00;52886.00;5039680;28;19921;-69
2023/04/22 02:05:18;;;;;;;;;;;;;;;-140.72;100.00;52855.56;5030673;27;19925;-69
2023/04/22 02:07:43;;;;;;;;;;;;;;;-140.72;100.00;52926.59;5036603;28;20026;-69
2023/04/22 02:10:10;;;;;;;;;;;;;;;-140.72;100.00;52886.00;5023338;28;19917;-69
2023/04/22 02:12:35;;;;;;;;;;;;;;;-140.72;100.00;52879.91;5019307;28;19929;-69
2023/04/22 02:15:00;;;;;;;;;;;;;;;-140.72;100.00;52879.91;5015459;28;20413;-69
2023/04/22 02:17:41;;;;;;;;;;;;;;;-140.72;100.00;52896.16;5043468;28;19921;-69
2023/04/22 02:20:06;;;;;;;;;;;;;;;-140.72;100.00;52896.16;5032599;28;19917;-72
2023/04/22 02:22:32;;;;;;;;;;;;;;;-140.72;100.00;52918.47;5033923;28;19925;-69
2023/04/22 02:24:57;;;;;;;;;;;;;;;-140.72;100.00;52942.81;5022990;28;20027;-69
2023/04/22 02:27:22;;;;;;;;;;;;;;;-140.72;100.00;52904.25;5025813;28;19993;-69
2023/04/22 02:29:47;;;;;;;;;;;;;;;-140.72;100.00;52886.00;5029078;28;19921;-69
2023/04/22 02:32:13;;;;;;;;;;;;;;;-140.72;100.00;52922.53;5021149;28;20328;-69
2023/04/22 02:34:56;;;;;;;;;;;;;;;-140.72;100.00;52894.13;5030904;28;19921;-69
2023/04/22 02:37:21;;;;;;;;;;;;;;;-140.72;100.00;52902.22;5032219;28;19929;-69
2023/04/22 02:40:04;;;;;;;;;;;;;;;-140.72;100.00;52871.78;5032338;28;19978;-69
2023/04/22 02:42:29;;;;;;;;;;;;;;;-140.72;100.00;52898.16;5029204;28;19929;-69
2023/04/22 02:44:55;;;;;;;;;;;;;;;-140.72;100.00;52871.78;5028890;27;19935;-69
2023/04/22 02:47:21;;;;;;;;;;;;;;;-140.72;100.00;52900.19;5027046;28;19957;-69
2023/04/22 02:49:46;;;;;;;;;;;;;;;-140.72;100.00;52926.59;5028015;28;19940;-69
2023/04/22 02:52:11;;;;;;;;;;;;;;;-140.72;100.00;52892.09;5028123;28;19929;-69
2023/04/22 02:54:36;;;;;;;;;;;;;;;-140.72;100.00;52924.56;5026371;28;19929;-69
2023/04/22 02:57:01;;;;;;;;;;;;;;;-140.72;100.00;52892.09;5028524;28;20059;-69
2023/04/22 02:59:38;;;;;;;;;;;;;;;-140.72;100.00;52877.88;5026236;28;21398;-69
2023/04/22 03:02:03;;;;;;;;;;;;;;;-140.72;100.00;52900.19;5031013;28;20393;-69
2023/04/22 03:04:28;;;;;;;;;;;;;;;-140.72;100.00;52888.03;5024108;28;20012;-69
2023/04/22 03:06:55;;;;;;;;;;;;;;;-140.72;100.00;52904.25;5038959;28;20295;-69
2023/04/22 03:09:26;;;;;;;;;;;;;;;-140.72;100.00;52904.25;5025249;28;19921;-69
2023/04/22 03:11:51;;;;;;;;;;;;;;;-140.72;100.00;52904.25;5026431;28;19930;-69
2023/04/22 03:14:16;;;;;;;;;;;;;;;-140.72;100.00;52861.66;5027975;28;19922;-69
2023/04/22 03:16:41;;;;;;;;;;;;;;;-140.72;100.00;52883.97;5027406;28;19957;-69
2023/04/22 03:19:06;;;;;;;;;;;;;;;-140.72;100.00;52886.00;5042002;28;19961;-69
2023/04/22 03:21:32;;;;;;;;;;;;;;;-140.72;100.00;52898.16;5032750;28;19921;-69
2023/04/22 03:23:57;;;;;;;;;;;;;;;-140.72;100.00;52888.03;5031719;28;19956;-69
2023/04/22 03:26:22;;;;;;;;;;;;;;;-140.72;100.00;52898.16;5019849;28;20011;-69
2023/04/22 03:28:48;;;;;;;;;;;;;;;-140.72;100.00;52906.28;5063583;28;19921;-69
2023/04/22 03:31:13;;;;;;;;;;;;;;;-140.72;100.00;52883.97;5022858;28;19917;-69
2023/04/22 03:33:38;;;;;;;;;;;;;;;-140.72;100.00;52930.66;5030548;28;19968;-69
2023/04/22 03:36:03;;;;;;;;;;;;;;;-140.72;100.00;52910.34;5062599;28;19967;-69
2023/04/22 03:38:29;;;;;;;;;;;;;;;-140.72;100.00;52865.69;5037106;28;19964;-69
2023/04/22 03:40:54;;;;;;;;;;;;;;;-140.72;100.00;52896.16;5100669;27;20326;-69
2023/04/22 03:43:19;;;;;;;;;;;;;;;-140.72;100.00;52886.00;5030123;28;20350;-69
2023/04/22 03:45:45;;;;;;;;;;;;;;;-140.72;100.00;52877.88;5030908;28;19921;-69
2023/04/22 03:48:11;;;;;;;;;;;;;;;-140.72;100.00;52898.16;5039422;28;20016;-69
2023/04/22 03:50:36;;;;;;;;;;;;;;;-140.72;100.00;52861.66;5031651;28;19960;-68
2023/04/22 03:53:01;;;;;;;;;;;;;;;-140.72;100.00;52853.53;5028305;28;20003;-69
2023/04/22 03:55:26;;;;;;;;;;;;;;;-140.72;100.00;52867.72;5065355;28;19927;-68
2023/04/22 03:57:51;;;;;;;;;;;;;;;-140.72;100.00;52898.16;5065843;28;19920;-69
2023/04/22 04:00:17;;;;;;;;;;;;;;;-140.72;100.00;52892.09;5067564;28;19946;-69
2023/04/22 04:02:42;;;;;;;;;;;;;;;-140.72;100.00;52906.28;5042377;28;19956;-68
2023/04/22 04:05:08;;;;;;;;;;;;;;;-140.72;100.00;52877.88;5065688;28;19964;-68
2023/04/22 04:07:33;;;;;;;;;;;;;;;-140.72;100.00;52892.09;5029323;28;20298;-68
2023/04/22 04:09:58;;;;;;;;;;;;;;;-140.72;100.00;52892.09;5022112;28;19922;-68
2023/04/22 04:12:23;;;;;;;;;;;;;;;-140.72;100.00;52902.22;5029327;28;19925;-68
2023/04/22 04:14:49;;;;;;;;;;;;;;;-140.72;100.00;52886.00;5026459;28;19920;-68
2023/04/22 04:17:14;;;;;;;;;;;;;;;-140.72;100.00;52869.75;5025113;28;19980;-68
2023/04/22 04:19:39;;;;;;;;;;;;;;;-140.72;100.00;52867.72;5025557;28;19925;-68
2023/04/22 04:22:05;;;;;;;;;;;;;;;-140.72;100.00;52869.75;5022319;28;19928;-73
2023/04/22 04:24:31;;;;;;;;;;;;;;;-140.72;100.00;52886.00;5024296;28;19925;-71
2023/04/22 04:26:56;;;;;;;;;;;;;;;-140.72;100.00;52890.06;5030781;28;19977;-69
2023/04/22 04:29:22;;;;;;;;;;;;;;;-140.72;100.00;52906.28;5027558;28;19936;-69
2023/04/22 04:31:47;;;;;;;;;;;;;;;-140.72;100.00;52890.06;5027891;28;19990;-71
2023/04/22 04:34:13;;;;;;;;;;;;;;;-140.72;100.00;52879.91;5022808;28;20481;-69
2023/04/22 04:36:38;;;;;;;;;;;;;;;-140.72;100.00;52873.81;5026437;28;19921;-69
2023/04/22 04:39:04;;;;;;;;;;;;;;;-140.72;100.00;52863.66;5028207;28;19928;-69
2023/04/22 04:41:30;;;;;;;;;;;;;;;-140.72;100.00;52886.00;5025065;28;19964;-72
2023/04/22 04:43:55;;;;;;;;;;;;;;;-140.72;100.00;52859.63;5022512;28;19929;-69
2023/04/22 04:46:21;;;;;;;;;;;;;;;-140.72;100.00;52867.72;5021455;28;19925;-69
2023/04/22 04:48:47;;;;;;;;;;;;;;;-140.72;100.00;52871.78;5025813;28;20387;-69
2023/04/22 04:51:13;;;;;;;;;;;;;;;-140.72;100.00;52898.16;5027732;28;19922;-70
2023/04/22 04:53:39;;;;;;;;;;;;;;;-140.72;100.00;52877.88;5025817;28;19929;-70
2023/04/22 04:56:17;;;;;;;;;;;;;;;-140.72;100.00;52881.94;5024111;28;19921;-69
2023/04/22 04:58:53;;;;;;;;;;;;;;;-140.72;100.00;52863.66;5020710;28;19932;-69
2023/04/22 05:01:28;;;;;;;;;;;;;;;-140.72;100.00;52873.81;5023019;28;19944;-70
2023/04/22 05:03:54;;;;;;;;;;;;;;;-140.72;100.00;52912.38;5022500;28;19929;-69
2023/04/22 05:06:19;;;;;;;;;;;;;;;-140.72;100.00;52871.78;5025457;28;19921;-70
2023/04/22 05:08:45;;;;;;;;;;;;;;;-140.72;100.00;52879.91;5024943;28;19922;-70
2023/04/22 05:11:10;;;;;;;;;;;;;;;-140.72;100.00;52908.31;5027251;28;19956;-70
2023/04/22 05:13:35;;;;;;;;;;;;;;;-140.72;100.00;52924.56;5030513;27;19962;-70
2023/04/22 05:16:00;;;;;;;;;;;;;;;-140.72;100.00;52867.72;5027074;28;19924;-70
2023/04/22 05:18:25;;;;;;;;;;;;;;;-140.72;100.00;52881.94;5029861;28;19922;-70
2023/04/22 05:20:51;;;;;;;;;;;;;;;-140.72;100.00;52902.22;5033243;28;19921;-70
2023/04/22 05:23:16;;;;;;;;;;;;;;;-140.72;100.00;52883.97;5032390;28;19982;-70
2023/04/22 05:25:41;;;;;;;;;;;;;;;-140.72;100.00;52853.53;5032958;28;19925;-70
2023/04/22 05:28:07;;;;;;;;;;;;;;;-140.72;100.00;52861.66;5026097;28;19928;-70
2023/04/22 05:30:32;;;;;;;;;;;;;;;-140.72;100.00;52869.75;5025771;28;19928;-70
2023/04/22 05:33:16;;;;;;;;;;;;;;;-140.72;100.00;52863.66;5031725;28;20024;-72
2023/04/22 05:35:42;;;;;;;;;;;;;;;-140.72;100.00;52881.94;5026209;28;19925;-70
2023/04/22 05:38:07;;;;;;;;;;;;;;;-140.72;100.00;52867.72;5031475;28;19970;-70
2023/04/22 05:40:32;;;;;;;;;;;;;;;-140.72;100.00;52847.44;5039713;28;19963;-70
2023/04/22 05:42:58;;;;;;;;;;;;;;;-140.72;100.00;52855.56;5032107;28;20291;-71
2023/04/22 05:45:23;;;;;;;;;;;;;;;-140.72;100.00;52873.81;5039445;28;19932;-70
2023/04/22 05:47:48;;;;;;;;;;;;;;;-140.72;100.00;52865.69;5028848;28;19928;-70
2023/04/22 05:50:13;;;;;;;;;;;;;;;-140.72;100.00;52817.00;5026064;28;19928;-70
2023/04/22 05:52:39;;;;;;;;;;;;;;;-140.72;100.00;52861.66;5026293;28;19929;-70
2023/04/22 05:55:04;;;;;;;;;;;;;;;-140.72;100.00;52892.09;5025885;28;19956;-69
2023/04/22 05:57:30;;;;;;;;;;;;;;;-140.72;100.00;52825.13;5031203;28;19982;-70
2023/04/22 05:59:55;;;;;;;;;;;;;;;-140.72;100.00;52831.19;5029718;28;19993;-70
2023/04/22 06:02:21;;;;;;;;;;;;;;;-140.72;100.00;52849.47;5030243;28;19936;-70
2023/04/22 06:04:46;;;;;;;;;;;;;;;-140.72;100.00;52843.38;5027515;28;19928;-70
2023/04/22 06:07:11;;;;;;;;;;;;;;;-140.72;100.00;52817.00;5026234;28;19925;-70
2023/04/22 06:09:36;;;;;;;;;;;;;;;-140.72;100.00;52810.91;5024688;28;19929;-70
2023/04/22 06:12:01;;;;;;;;;;;;;;;-140.72;100.00;52831.19;5030928;28;19925;-70
2023/04/22 06:14:27;;;;;;;;;;;;;;;-140.72;100.00;52839.31;5026622;28;19921;-70
2023/04/22 06:16:52;;;;;;;;;;;;;;;-140.72;100.00;52831.19;5027042;28;20280;-70
2023/04/22 06:19:18;;;;;;;;;;;;;;;-140.72;100.00;52829.19;5029808;28;20343;-70
2023/04/22 06:21:43;;;;;;;;;;;;;;;-140.72;100.00;52849.47;5025616;28;19922;-70
2023/04/22 06:24:09;;;;;;;;;;;;;;;-140.72;100.00;52812.94;5025546;28;19981;-70
2023/04/22 06:26:37;;;;;;;;;;;;;;;-140.72;100.00;52808.88;5028987;28;19971;-69
2023/04/22 06:29:04;;;;;;;;;;;;;;;-140.72;100.00;52798.72;5025648;28;19922;-70
2023/04/22 06:31:30;;;;;;;;;;;;;;;-140.72;100.00;52790.63;5031285;28;20355;-71
2023/04/22 06:33:55;;;;;;;;;;;;;;;-140.72;100.00;52788.59;5030077;28;19928;-70
2023/04/22 06:36:20;;;;;;;;;;;;;;;-140.72;100.00;52784.53;5030388;28;19952;-70
2023/04/22 06:38:45;;;;;;;;;;;;;;;-140.72;100.00;52796.72;5031229;28;19925;-70
2023/04/22 06:41:11;;;;;;;;;;;;;;;-140.72;100.00;52776.41;5032044;28;19921;-70
2023/04/22 06:43:36;;;;;;;;;;;;;;;-140.72;100.00;52784.53;5018696;28;20301;-70
2023/04/22 06:46:01;;;;;;;;;;;;;;;-140.72;100.00;52772.34;5051989;28;19921;-70
2023/04/22 06:48:26;;;;;;;;;;;;;;;-140.72;100.00;52792.66;5025323;28;19917;-70
2023/04/22 06:50:52;;;;;;;;;;;;;;;-140.72;100.00;52794.69;5054432;28;19924;-70
2023/04/22 06:53:17;;;;;;;;;;;;;;;-140.72;100.00;52792.66;5031127;28;20008;-70
2023/04/22 06:55:42;;;;;;;;;;;;;;;-140.72;100.00;52754.09;5051176;28;19916;-70
2023/04/22 06:58:07;;;;;;;;;;;;;;;-140.72;100.00;52810.91;5040281;28;19956;-70
2023/04/22 07:00:33;;;;;;;;;;;;;;;-140.72;100.00;52743.94;5062883;28;20370;-70
2023/04/22 07:02:58;;;;;;;;;;;;;;;-140.72;100.00;52735.81;5032046;28;19927;-70
2023/04/22 07:05:23;;;;;;;;;;;;;;;-140.72;100.00;52758.16;5029605;28;20407;-70
2023/04/22 07:07:48;;;;;;;;;;;;;;;-140.72;100.00;52727.72;5018213;28;19922;-70
2023/04/22 07:10:14;;;;;;;;;;;;;;;-140.72;100.00;52792.66;5027510;28;19971;-73
2023/04/22 07:12:39;;;;;;;;;;;;;;;-140.72;100.00;52733.78;5045872;28;19917;-71
2023/04/22 07:15:05;;;;;;;;;;;;;;;-140.72;100.00;52788.59;5029569;28;19928;-70
2023/04/22 07:17:30;;;;;;;;;;;;;;;-140.72;100.00;52780.47;5028477;28;19933;-71
2023/04/22 07:19:55;;;;;;;;;;;;;;;-140.72;100.00;52764.25;5023653;28;19927;-73
2023/04/22 07:22:27;;;;;;;;;;;;;;;-140.72;100.00;52743.94;5033408;28;20383;-70
2023/04/22 07:24:52;;;;;;;;;;;;;;;-140.72;100.00;52752.06;5020461;28;20320;-70
2023/04/22 07:27:17;;;;;;;;;;;;;;;-140.72;100.00;52752.06;5033602;28;19969;-70
2023/04/22 07:29:42;;;;;;;;;;;;;;;-140.72;100.00;52766.25;5030942;28;19969;-70
2023/04/22 07:32:08;;;;;;;;;;;;;;;-140.72;100.00;52731.75;5037271;28;20016;-71
2023/04/22 07:34:33;;;;;;;;;;;;;;;-140.72;100.00;52754.09;5034798;28;19924;-70
2023/04/22 07:36:59;;;;;;;;;;;;;;;-140.72;100.00;52743.94;5037871;28;19927;-70
2023/04/22 07:39:25;;;;;;;;;;;;;;;-140.72;100.00;52733.78;5041329;28;20290;-70
2023/04/22 07:41:52;;;;;;;;;;;;;;;-140.72;100.00;52774.38;5036435;28;19917;-69
2023/04/22 07:44:20;;;;;;;;;;;;;;;-140.72;100.00;52758.16;5030468;28;19917;-70
2023/04/22 07:46:45;;;;;;;;;;;;;;;-140.72;100.00;52770.31;5029096;28;19974;-70
2023/04/22 07:49:12;;;;;;;;;;;;;;;-140.72;100.00;52735.81;5027701;28;19925;-70
2023/04/22 07:51:38;;;;;;;;;;;;;;;-140.72;100.00;52727.72;5029978;28;19949;-70
2023/04/22 07:54:03;;;;;;;;;;;;;;;-140.72;100.00;52743.94;5030792;28;19928;-70
2023/04/22 07:56:28;;;;;;;;;;;;;;;-140.72;100.00;52737.84;5027645;28;20412;-70
2023/04/22 08:01:56;;;;;;;;;;;;;;;-140.72;100.00;52756.13;5043098;28;19924;-72
2023/04/22 08:04:21;;;;;;;;;;;;;;;-140.72;100.00;52709.44;5016374;28;19921;-72
2023/04/22 08:06:47;;;;;;;;;;;;;;;-140.72;100.00;52711.47;5023387;28;20400;-71
2023/04/22 08:09:12;;;;;;;;;;;;;;;-140.72;100.00;52660.75;5030179;28;19917;-72
2023/04/22 08:11:37;;;;;;;;;;;;;;;-140.72;100.00;52648.56;5027166;28;19921;-72
2023/04/22 08:14:02;;;;;;;;;;;;;;;-140.72;100.00;52670.88;5028041;28;20000;-71
2023/04/22 08:16:27;;;;;;;;;;;;;;;-140.72;100.00;52646.53;5028234;28;19918;-71
2023/04/22 08:18:53;;;;;;;;;;;;;;;-140.72;100.00;52670.88;5027753;28;20031;-71
2023/04/22 08:21:18;;;;;;;;;;;;;;;-140.72;100.00;52668.84;5033671;28;19925;-70
2023/04/22 08:23:43;;;;;;;;;;;;;;;-140.72;100.00;52666.84;5072679;28;19974;-70
2023/04/22 08:26:13;;;;;;;;;;;;;;;-140.72;100.00;52622.19;5092658;27;19918;-70
2023/04/22 08:28:39;;;;;;;;;;;;;;;-140.72;100.00;52605.94;5027474;28;19929;-70
2023/04/22 08:31:05;;;;;;;;;;;;;;;-140.72;100.00;52630.31;5029407;28;19917;-70
2023/04/22 08:33:30;;;;;;;;;;;;;;;-140.72;100.00;52626.25;5028407;28;19933;-70
2023/04/22 08:35:55;;;;;;;;;;;;;;;-140.72;100.00;52589.72;5029808;28;19974;-70
2023/04/22 08:38:20;;;;;;;;;;;;;;;-140.72;100.00;52577.53;5026682;28;19921;-71
2023/04/22 08:41:02;;;;;;;;;;;;;;;-140.72;100.00;52640.44;5026830;28;19921;-72
2023/04/22 08:43:27;;;;;;;;;;;;;;;-140.72;100.00;52603.94;5027772;28;20389;-70
2023/04/22 08:45:53;;;;;;;;;;;;;;;-140.72;100.00;52593.78;5038260;28;19929;-70
2023/04/22 08:48:18;;;;;;;;;;;;;;;-140.72;100.00;52591.75;5062750;28;20284;-71
2023/04/22 08:50:45;;;;;;;;;;;;;;;-140.72;100.00;52593.78;5027195;28;19935;-71
2023/04/22 08:53:17;;;;;;;;;;;;;;;-140.72;100.00;52534.94;5026429;28;19987;-69
2023/04/22 08:55:43;;;;;;;;;;;;;;;-140.72;100.00;52534.94;5025178;28;20375;-70
2023/04/22 08:58:09;;;;;;;;;;;;;;;-140.72;100.00;52569.44;5025442;28;19921;-70
2023/04/22 09:00:34;;;;;;;;;;;;;;;-140.72;100.00;52561.31;5026809;28;19925;-70
2023/04/22 09:03:07;;;;;;;;;;;;;;;-140.72;100.00;52553.19;5024741;28;20015;-69
2023/04/22 09:05:47;;;;;;;;;;;;;;;-140.72;100.00;52528.84;5025773;28;20023;-70
2023/04/22 09:08:12;;;;;;;;;;;;;;;-140.72;100.00;52520.72;5015467;28;19927;-70
2023/04/22 09:10:39;;;;;;;;;;;;;;;-140.72;100.00;52557.25;5025099;28;21280;-71
2023/04/22 09:13:05;;;;;;;;;;;;;;;-140.72;100.00;52536.97;5034099;28;19921;-71
2023/04/22 09:15:31;;;;;;;;;;;;;;;-140.72;100.00;52522.75;5037880;28;20004;-71
2023/04/22 09:17:57;;;;;;;;;;;;;;;-140.72;100.00;52581.59;5025202;28;19922;-71
2023/04/22 09:20:26;;;;;;;;;;;;;;;-140.72;100.00;52581.59;5026093;28;19921;-72
2023/04/22 09:22:51;;;;;;;;;;;;;;;-140.72;100.00;52585.66;5027411;28;19986;-71
2023/04/22 09:25:21;;;;;;;;;;;;;;;-140.72;100.00;52569.44;5025230;28;20351;-72
2023/04/22 09:27:56;;;;;;;;;;;;;;;-140.72;100.00;52597.84;5029720;28;19924;-72
2023/04/22 09:30:32;;;;;;;;;;;;;;;-140.72;100.00;52612.03;5022136;28;19971;-72
2023/04/22 09:32:58;;;;;;;;;;;;;;;-140.72;100.00;52599.88;5032276;28;19921;-72
2023/04/22 09:35:28;;;;;;;;;;;;;;;-140.72;100.00;52571.47;5030084;28;19922;-71
2023/04/22 09:37:54;;;;;;;;;;;;;;;-140.72;100.00;52557.25;5027383;28;19929;-71
2023/04/22 09:40:19;;;;;;;;;;;;;;;-140.72;100.00;52555.22;5021966;28;19922;-71
2023/04/22 09:42:48;;;;;;;;;;;;;;;-140.72;100.00;52541.03;5030352;28;19959;-71
2023/04/22 09:45:23;;;;;;;;;;;;;;;-140.72;100.00;52559.28;5019426;28;19917;-71
2023/04/22 09:47:48;;;;;;;;;;;;;;;-140.72;100.00;52512.59;5028967;28;20299;-71
2023/04/22 09:50:13;;;;;;;;;;;;;;;-140.72;100.00;52514.63;5024070;28;19917;-71
2023/04/22 09:52:39;;;;;;;;;;;;;;;-140.72;100.00;52524.78;5024627;28;19928;-71
2023/04/22 09:55:07;;;;;;;;;;;;;;;-140.72;100.00;52508.56;5054696;28;19929;-71
2023/04/22 09:57:32;;;;;;;;;;;;;;;-140.72;100.00;52543.03;5039976;28;19918;-72
2023/04/22 09:59:58;;;;;;;;;;;;;;;-140.72;100.00;52512.59;5043291;28;19943;-72
2023/04/22 10:02:29;;;;;;;;;;;;;;;-140.72;100.00;52512.59;5036102;27;21272;-72
2023/04/22 10:04:55;;;;;;;;;;;;;;;-140.72;100.00;52455.78;5034919;28;19928;-71
2023/04/22 10:07:21;;;;;;;;;;;;;;;-140.72;100.00;52504.50;5028804;28;19975;-71
2023/04/22 10:09:46;;;;;;;;;;;;;;;-140.72;100.00;52500.44;5043998;28;19921;-72
2023/04/22 10:12:12;;;;;;;;;;;;;;;-140.72;100.00;52516.66;5027381;28;20024;-71
2023/04/22 10:14:37;;;;;;;;;;;;;;;-140.72;100.00;52528.84;5026413;28;20019;-73
2023/04/22 10:17:03;;;;;;;;;;;;;;;-140.72;100.00;52571.47;5028570;28;19917;-71
2023/04/22 10:19:30;;;;;;;;;;;;;;;-140.72;100.00;52547.09;5048650;28;19920;-72
2023/04/22 10:21:57;;;;;;;;;;;;;;;-140.72;100.00;52601.91;5042175;28;19927;-72
2023/04/22 10:24:24;;;;;;;;;;;;;;;-140.72;100.00;52565.38;5034594;28;20444;-74
2023/04/22 10:26:52;;;;;;;;;;;;;;;-140.72;100.00;52616.09;5025232;28;19921;-74
2023/04/22 10:29:18;;;;;;;;;;;;;;;-140.72;100.00;52605.94;5054284;28;19970;-72
2023/04/22 10:31:49;;;;;;;;;;;;;;;-140.72;100.00;52652.63;5037671;28;20298;-75
2023/04/22 10:34:16;;;;;;;;;;;;;;;-140.72;100.00;52644.50;5030940;28;19925;-75
2023/04/22 10:36:55;;;;;;;;;;;;;;;-140.72;100.00;52618.13;5032371;28;19928;-72
2023/04/22 10:39:20;;;;;;;;;;;;;;;-140.72;100.00;52695.25;5022025;28;19935;-72
2023/04/22 10:41:54;;;;;;;;;;;;;;;-140.72;100.00;52614.06;5029588;28;19921;-73
2023/04/22 10:44:21;;;;;;;;;;;;;;;-140.72;100.00;52646.53;5034590;28;19932;-73
2023/04/22 10:46:49;;;;;;;;;;;;;;;-140.72;100.00;52652.63;5030006;27;19921;-72
2023/04/22 10:49:21;;;;;;;;;;;;;;;-140.72;100.00;52681.03;5035435;28;19928;-72
2023/04/22 10:51:48;;;;;;;;;;;;;;;-140.72;100.00;52666.84;5034767;28;19917;-71
2023/04/22 10:54:26;;;;;;;;;;;;;;;-140.72;100.00;52650.59;5030403;28;19921;-73
2023/04/22 10:57:03;;;;;;;;;;;;;;;-140.72;100.00;52660.75;5035168;28;20000;-73
2023/04/22 10:59:30;;;;;;;;;;;;;;;-140.72;100.00;52638.41;5018329;28;19921;-72
2023/04/22 11:02:00;;;;;;;;;;;;;;;-140.72;100.00;52666.84;5023838;28;20312;-71
2023/04/22 11:04:25;;;;;;;;;;;;;;;-140.72;100.00;52689.16;5032859;28;19921;-72
2023/04/22 11:07:09;;;;;;;;;;;;;;;-140.72;100.00;52634.38;5021541;28;19925;-73
2023/04/22 11:09:39;;;;;;;;;;;;;;;-140.72;100.00;52709.44;5026809;28;19972;-72
2023/04/22 11:12:30;;;;;;;;;;;;;;;-140.72;100.00;52709.44;5018800;28;20390;-73
2023/04/22 11:14:56;;;;;;;;;;;;;;;-140.72;100.00;52644.50;5038018;28;19925;-74
2023/04/22 11:17:23;;;;;;;;;;;;;;;-140.72;100.00;52697.28;5027084;28;19931;-70
2023/04/22 11:19:54;;;;;;;;;;;;;;;-140.72;100.00;52725.69;5048467;28;20452;-70
2023/04/22 11:22:20;;;;;;;;;;;;;;;-140.72;100.00;52719.59;5040355;28;20007;-70
2023/04/22 11:24:55;;;;;;;;;;;;;;;-140.72;100.00;52760.19;5031242;28;19975;-69
2023/04/22 11:27:25;;;;;;;;;;;;;;;-140.72;100.00;52770.31;5021999;28;20009;-70
2023/04/22 11:30:08;;;;;;;;;;;;;;;-140.72;100.00;52719.59;5024271;28;20321;-69
2023/04/22 11:32:46;;;;;;;;;;;;;;;-140.72;100.00;52745.97;5027349;28;19960;-70
2023/04/22 11:35:12;;;;;;;;;;;;;;;-140.72;100.00;52699.31;5026671;28;19925;-70
2023/04/22 11:37:41;;;;;;;;;;;;;;;-140.72;100.00;52735.81;5027919;28;19966;-69
2023/04/22 11:40:10;;;;;;;;;;;;;;;-140.72;100.00;52699.31;5026295;28;20383;-70
2023/04/22 11:42:38;;;;;;;;;;;;;;;-140.72;100.00;52764.25;5028157;28;19926;-70
2023/04/22 11:45:05;;;;;;;;;;;;;;;-140.72;100.00;52703.34;5021614;28;19968;-70
2023/04/22 11:47:30;;;;;;;;;;;;;;;-140.72;100.00;52745.97;5037977;28;19924;-70
2023/04/22 11:49:56;;;;;;;;;;;;;;;-140.72;100.00;52719.59;5027660;28;20023;-70
2023/04/22 11:52:22;;;;;;;;;;;;;;;-140.72;100.00;52699.31;5033662;28;19925;-70
2023/04/22 11:54:47;;;;;;;;;;;;;;;-140.72;100.00;52754.09;5028319;28;19921;-70
2023/04/22 11:57:14;;;;;;;;;;;;;;;-140.72;100.00;52743.94;5028333;28;19927;-69
2023/04/22 11:59:40;;;;;;;;;;;;;;;-140.72;100.00;52750.03;5024943;28;19921;-70
2023/04/22 12:02:06;;;;;;;;;;;;;;;-140.72;100.00;52758.16;5028162;28;19928;-70
2023/04/22 12:04:37;;;;;;;;;;;;;;;-140.72;100.00;52750.03;5022102;28;20058;-70
2023/04/22 12:07:03;;;;;;;;;;;;;;;-140.72;100.00;52788.59;5027029;28;19968;-70
2023/04/22 12:09:28;;;;;;;;;;;;;;;-140.72;100.00;52739.88;5039755;28;20050;-70
2023/04/22 12:11:54;;;;;;;;;;;;;;;-140.72;100.00;52729.75;5028949;28;19917;-70
2023/04/22 12:14:19;;;;;;;;;;;;;;;-140.72;100.00;52772.34;5025971;28;19917;-70
2023/04/22 12:16:44;;;;;;;;;;;;;;;-140.72;100.00;52766.25;5030258;28;19944;-70
2023/04/22 12:19:10;;;;;;;;;;;;;;;-140.72;100.00;52727.72;5027740;28;19917;-70